Terminal Aerodrome Forecast
Issued by NWS Sterling, VA

Current Version | Previous Version | Text Only | Print | Product List | Glossary Off
Versions: 1 2 3 4 5 6 7 8 9 10 11 12 13 14 15 16

000
FTUS41 KLWX 271731
TAFMRB
TAF
KMRB 271731Z 2718/2818 33006KT P6SM SCT050
     FM280600 VRB03KT 5SM BR SCT050
     FM281300 VRB03KT P6SM SCT050=

USA.gov is the U.S. government's official web portal to all federal, state and local government web resources and services.